Time;durP1;ratioP1;P1;durP2;ratioP2;P2;SDS_P1;SDS_P2;PMS_P1;PMS_P2;Temp;Humidity;BMP_temperature;BMP_pressure;BME280_temperature;BME280_humidity;BME280_pressure;Samples;Min_cycle;Max_cycle;Signal;HPM_P1;HPM_P2
2023/03/17 00:00:50;;;;;;;8.40;3.97;;;5.20;1.00;;;;;;5040222;28;20821;-82
2023/03/17 00:03:20;;;;;;;8.40;3.97;;;5.20;1.00;;;;;;5039751;28;20332;-82
2023/03/17 00:05:48;;;;;;;10.95;5.20;;;5.20;1.00;;;;;;5038955;28;20273;-82
2023/03/17 00:08:21;;;;;;;9.98;4.10;;;5.20;1.00;;;;;;5040734;28;20705;-81
2023/03/17 00:10:48;;;;;;;9.13;4.18;;;5.20;1.00;;;;;;5045346;27;20243;-81
2023/03/17 00:13:16;;;;;;;10.95;4.72;;;5.20;1.00;;;;;;5040391;28;20373;-81
2023/03/17 00:15:43;;;;;;;10.50;6.20;;;5.20;1.00;;;;;;5052379;28;20237;-83
2023/03/17 00:18:13;;;;;;;7.50;4.68;;;5.10;1.00;;;;;;5058305;28;20244;-83
2023/03/17 00:20:40;;;;;;;10.40;4.65;;;5.10;1.00;;;;;;5068409;28;20248;-82
2023/03/17 00:23:15;;;;;;;7.55;4.03;;;5.10;1.00;;;;;;5064367;28;20259;-82
2023/03/17 00:25:44;;;;;;;8.75;4.65;;;5.10;1.00;;;;;;5062475;28;20315;-83
2023/03/17 00:28:16;;;;;;;7.88;4.30;;;5.10;1.00;;;;;;5065419;28;20238;-83
2023/03/17 00:30:43;;;;;;;14.75;5.00;;;5.00;1.00;;;;;;5062595;28;20300;-83
2023/03/17 00:33:11;;;;;;;8.57;4.80;;;5.00;1.00;;;;;;5059877;28;20236;-82
2023/03/17 00:35:40;;;;;;;9.60;4.47;;;5.00;1.00;;;;;;5063202;28;20234;-81
2023/03/17 00:38:14;;;;;;;10.35;5.55;;;5.00;1.00;;;;;;5064526;28;20241;-82
2023/03/17 00:40:42;;;;;;;9.77;4.80;;;4.90;1.00;;;;;;5064644;28;20241;-82
2023/03/17 00:43:09;;;;;;;8.48;4.63;;;5.00;1.00;;;;;;5063011;28;20322;-82
2023/03/17 00:45:36;;;;;;;12.93;5.40;;;4.90;1.00;;;;;;5067389;28;20295;-82
2023/03/17 00:48:11;;;;;;;8.30;4.80;;;4.90;1.00;;;;;;5068425;28;20299;-82
2023/03/17 00:50:38;;;;;;;11.00;5.10;;;4.90;1.00;;;;;;5059842;28;21047;-83
2023/03/17 00:53:09;;;;;;;7.30;4.25;;;4.90;1.00;;;;;;5043568;28;21154;-83
2023/03/17 00:55:38;;;;;;;10.65;5.10;;;4.80;1.00;;;;;;5047115;28;20303;-83
2023/03/17 00:58:12;;;;;;;7.05;4.43;;;4.90;1.00;;;;;;5058235;27;20268;-82
2023/03/17 01:00:39;;;;;;;9.32;4.85;;;4.90;1.00;;;;;;5067391;28;20241;-82
2023/03/17 01:03:11;;;;;;;10.07;4.55;;;4.80;1.00;;;;;;5067199;27;21085;-82
2023/03/17 01:05:40;;;;;;;9.93;5.20;;;4.80;1.00;;;;;;5064046;27;20231;-81
2023/03/17 01:08:08;;;;;;;8.73;5.07;;;4.80;1.00;;;;;;5060366;27;20248;-82
2023/03/17 01:10:35;;;;;;;8.40;4.80;;;4.80;1.00;;;;;;5062060;27;20237;-82
2023/03/17 01:13:05;;;;;;;9.05;4.82;;;4.80;1.00;;;;;;5066926;28;20237;-82
2023/03/17 01:15:34;;;;;;;7.60;4.13;;;4.80;1.00;;;;;;5065099;28;20232;-84
2023/03/17 01:18:02;;;;;;;9.93;5.47;;;4.80;1.00;;;;;;5062542;28;20252;-83
2023/03/17 01:20:32;;;;;;;9.95;4.70;;;4.80;1.00;;;;;;5064475;28;20662;-82
2023/03/17 01:23:00;;;;;;;8.85;5.15;;;4.80;1.00;;;;;;5048194;28;20237;-83
2023/03/17 01:25:27;;;;;;;12.75;5.85;;;4.80;1.00;;;;;;5064101;28;20221;-83
2023/03/17 01:27:56;;;;;;;8.35;4.90;;;4.80;1.00;;;;;;5068302;28;20259;-83
2023/03/17 01:30:27;;;;;;;8.27;5.00;;;4.80;1.00;;;;;;5040386;28;20238;-82
2023/03/17 01:32:55;;;;;;;10.52;5.28;;;4.80;1.00;;;;;;5043686;28;20245;-84
2023/03/17 01:35:23;;;;;;;9.20;5.45;;;4.80;1.00;;;;;;5062525;27;20332;-84
2023/03/17 01:37:51;;;;;;;10.57;5.38;;;4.80;1.00;;;;;;5062153;28;20249;-84
2023/03/17 01:40:23;;;;;;;12.10;5.60;;;4.70;1.00;;;;;;5063247;28;21054;-84
2023/03/17 01:42:56;;;;;;;10.68;6.00;;;4.80;1.00;;;;;;5069198;28;20241;-85
2023/03/17 01:46:00;;;;;;;8.40;5.03;;;4.70;1.00;;;;;;5047223;28;20813;-83
2023/03/17 01:48:31;;;;;;;11.35;4.90;;;4.70;1.00;;;;;;5062531;27;20236;-84
2023/03/17 01:50:58;;;;;;;13.50;5.88;;;4.60;1.00;;;;;;5068075;27;20237;-84
2023/03/17 01:53:27;;;;;;;9.75;6.05;;;4.70;1.00;;;;;;5066518;28;20353;-85
2023/03/17 01:55:58;;;;;;;11.80;5.70;;;4.70;1.00;;;;;;5065485;27;20243;-84
2023/03/17 01:58:26;;;;;;;8.85;5.70;;;4.70;1.00;;;;;;5067167;28;20325;-84
2023/03/17 02:00:54;;;;;;;11.35;6.05;;;4.60;1.00;;;;;;5070410;28;20244;-84
2023/03/17 02:03:22;;;;;;;11.32;5.35;;;4.70;1.00;;;;;;5042842;28;20320;-83
2023/03/17 02:05:53;;;;;;;9.73;5.85;;;4.70;1.00;;;;;;5041739;28;20275;-82
2023/03/17 02:08:19;;;;;;;10.00;5.95;;;4.70;1.00;;;;;;5041941;28;21148;-82
2023/03/17 02:10:51;;;;;;;10.82;5.70;;;4.70;1.00;;;;;;5047534;28;20261;-83
2023/03/17 02:13:18;;;;;;;11.27;7.05;;;4.70;1.00;;;;;;5044885;28;20682;-83
2023/03/17 02:15:48;;;;;;;10.93;6.40;;;4.60;1.00;;;;;;5046301;28;20328;-83
2023/03/17 02:18:17;;;;;;;10.32;6.45;;;4.60;1.00;;;;;;5048124;28;20250;-83
2023/03/17 02:21:31;;;;;;;10.90;5.18;;;4.60;1.00;;;;;;5045482;28;20597;-84
2023/03/17 02:24:05;;;;;;;10.07;5.70;;;4.60;1.00;;;;;;5044580;28;20239;-85
2023/03/17 02:26:34;;;;;;;10.73;6.30;;;4.60;1.00;;;;;;5061448;27;20320;-85
2023/03/17 02:29:02;;;;;;;9.77;6.45;;;4.60;1.00;;;;;;5066254;27;20760;-84
2023/03/17 02:31:30;;;;;;;10.02;6.30;;;4.60;1.00;;;;;;5068279;27;20318;-85
2023/03/17 02:33:57;;;;;;;10.70;6.18;;;4.60;1.00;;;;;;5065201;27;20240;-85
2023/03/17 02:36:24;;;;;;;10.63;6.18;;;4.60;1.00;;;;;;5075340;27;20314;-85
2023/03/17 02:38:52;;;;;;;10.02;5.60;;;4.60;1.00;;;;;;5065399;27;20275;-85
2023/03/17 02:41:20;;;;;;;10.57;6.25;;;4.60;1.00;;;;;;5064844;28;20229;-83
2023/03/17 02:43:47;;;;;;;10.52;5.82;;;4.60;1.00;;;;;;5068157;27;20240;-85
2023/03/17 02:46:16;;;;;;;10.73;6.05;;;4.60;1.00;;;;;;5066809;27;20229;-85
2023/03/17 02:48:43;;;;;;;10.23;6.55;;;4.60;1.00;;;;;;5067976;28;20256;-84
2023/03/17 02:51:10;;;;;;;14.23;6.22;;;4.60;1.00;;;;;;5069242;28;20237;-84
2023/03/17 02:53:43;;;;;;;11.45;5.88;;;4.60;1.00;;;;;;5066370;27;20237;-85
2023/03/17 02:56:10;;;;;;;11.25;4.95;;;4.60;1.00;;;;;;5064018;27;20237;-85
2023/03/17 02:58:38;;;;;;;10.05;6.00;;;4.60;1.00;;;;;;5066201;28;20299;-85
2023/03/17 03:01:05;;;;;;;12.95;6.50;;;4.60;1.00;;;;;;5063627;27;20264;-84
2023/03/17 03:03:32;;;;;;;9.98;5.90;;;4.60;1.00;;;;;;5067444;28;20352;-83
2023/03/17 03:05:59;;;;;;;12.57;6.32;;;4.60;1.00;;;;;;5064185;27;20245;-83
2023/03/17 03:08:26;;;;;;;10.13;6.00;;;4.60;1.00;;;;;;5069858;28;20314;-83
2023/03/17 03:10:54;;;;;;;10.43;5.95;;;4.60;1.00;;;;;;5068360;28;20295;-82
2023/03/17 03:13:21;;;;;;;11.50;6.38;;;4.60;1.00;;;;;;5056185;28;20329;-83
2023/03/17 03:15:50;;;;;;;9.98;5.30;;;4.70;1.00;;;;;;5043511;28;20269;-82
2023/03/17 03:18:17;;;;;;;11.27;6.20;;;4.60;1.00;;;;;;5043886;28;20272;-82
2023/03/17 03:20:46;;;;;;;12.00;5.78;;;4.60;1.00;;;;;;5042085;28;21141;-83
2023/03/17 03:23:17;;;;;;;11.38;6.40;;;4.70;1.00;;;;;;5048799;28;21106;-82
2023/03/17 03:25:44;;;;;;;13.18;7.35;;;4.60;1.00;;;;;;5044155;28;20234;-83
2023/03/17 03:28:11;;;;;;;9.80;5.85;;;4.70;1.00;;;;;;5044784;28;20827;-83
2023/03/17 03:30:39;;;;;;;10.07;5.30;;;4.70;1.00;;;;;;5041932;28;20267;-83
2023/03/17 03:33:12;;;;;;;8.93;5.30;;;4.70;1.00;;;;;;5046825;28;20237;-83
2023/03/17 03:35:39;;;;;;;9.55;6.00;;;4.70;1.00;;;;;;5059571;27;20235;-83
2023/03/17 03:38:06;;;;;;;9.05;5.75;;;4.70;1.00;;;;;;5065711;28;20235;-83
2023/03/17 03:40:34;;;;;;;11.50;6.13;;;4.70;1.00;;;;;;5061276;28;20241;-85
2023/03/17 03:43:01;;;;;;;9.23;5.28;;;4.70;1.00;;;;;;5063736;28;20272;-83
2023/03/17 03:45:28;;;;;;;10.50;6.32;;;4.70;1.00;;;;;;5065108;28;20245;-80
2023/03/17 03:47:55;;;;;;;9.48;5.50;;;4.70;1.00;;;;;;5064272;28;20332;-82
2023/03/17 03:50:24;;;;;;;10.35;5.80;;;4.70;1.00;;;;;;5068992;28;21003;-83
2023/03/17 03:52:51;;;;;;;14.40;6.63;;;4.60;1.00;;;;;;5066044;28;20240;-84
2023/03/17 03:55:18;;;;;;;11.20;5.20;;;4.60;1.00;;;;;;5067686;28;20262;-85
2023/03/17 03:57:45;;;;;;;9.95;6.20;;;4.70;1.00;;;;;;5063846;28;20239;-84
2023/03/17 04:00:16;;;;;;;10.48;6.00;;;4.70;1.00;;;;;;5063516;28;20237;-85
2023/03/17 04:02:45;;;;;;;11.77;5.72;;;4.70;1.00;;;;;;5068741;28;20237;-84
2023/03/17 04:05:12;;;;;;;11.10;5.32;;;4.70;1.00;;;;;;5066718;28;20245;-84
2023/03/17 04:07:42;;;;;;;8.82;4.85;;;4.60;1.00;;;;;;5068886;28;20240;-84
2023/03/17 04:10:10;;;;;;;11.07;5.72;;;4.70;1.00;;;;;;5068733;28;20299;-83
2023/03/17 04:12:38;;;;;;;10.27;5.57;;;4.70;1.00;;;;;;5064638;28;20230;-84
2023/03/17 04:15:07;;;;;;;9.70;5.60;;;4.70;1.00;;;;;;5067276;28;20283;-81
2023/03/17 04:17:35;;;;;;;10.65;5.82;;;4.70;1.00;;;;;;5063479;28;20237;-84
2023/03/17 04:20:02;;;;;;;11.18;6.32;;;4.70;1.00;;;;;;5062428;28;20246;-83
2023/03/17 04:22:29;;;;;;;10.70;4.90;;;4.60;1.00;;;;;;5066292;28;20264;-81
2023/03/17 04:24:57;;;;;;;9.10;5.53;;;4.60;1.00;;;;;;5068750;28;20261;-85
2023/03/17 04:27:24;;;;;;;9.90;5.55;;;4.60;1.00;;;;;;5050370;28;20321;-83
2023/03/17 04:29:53;;;;;;;9.68;5.30;;;4.50;1.00;;;;;;5043567;28;20237;-83
2023/03/17 04:32:20;;;;;;;9.13;6.10;;;4.50;1.00;;;;;;5042576;28;20323;-83
2023/03/17 04:34:47;;;;;;;10.30;5.57;;;4.50;1.00;;;;;;5043887;28;20759;-82
2023/03/17 04:37:15;;;;;;;10.27;5.75;;;4.40;1.00;;;;;;5044967;28;20233;-80
2023/03/17 04:39:42;;;;;;;12.77;6.47;;;4.40;1.00;;;;;;5052045;28;20237;-80
2023/03/17 04:42:11;;;;;;;12.70;6.22;;;4.40;1.00;;;;;;5047194;28;20308;-81
2023/03/17 04:44:38;;;;;;;8.63;5.05;;;4.40;1.00;;;;;;5071201;28;20251;-81
2023/03/17 04:47:06;;;;;;;9.43;5.20;;;4.40;1.00;;;;;;5061791;28;20240;-80
2023/03/17 04:49:33;;;;;;;10.45;6.20;;;4.40;1.00;;;;;;5061573;28;21637;-83
2023/03/17 04:52:00;;;;;;;10.55;5.20;;;4.40;1.00;;;;;;5065040;28;20225;-82
2023/03/17 04:54:27;;;;;;;9.40;5.20;;;4.40;1.00;;;;;;5064334;28;20677;-82
2023/03/17 04:56:55;;;;;;;9.32;4.72;;;4.40;1.00;;;;;;5065960;28;20239;-82
2023/03/17 04:59:23;;;;;;;11.10;5.53;;;4.40;1.00;;;;;;5068352;28;20256;-83
2023/03/17 05:01:50;;;;;;;15.55;8.27;;;4.40;1.00;;;;;;5067297;28;20229;-83
2023/03/17 05:04:20;;;;;;;9.65;5.22;;;4.50;1.00;;;;;;5061311;28;20295;-80
2023/03/17 05:06:47;;;;;;;10.82;5.70;;;4.50;1.00;;;;;;5068720;28;20238;-83
2023/03/17 05:09:14;;;;;;;12.73;6.03;;;4.40;1.00;;;;;;5068985;28;20246;-82
2023/03/17 05:11:41;;;;;;;12.50;5.57;;;4.40;1.00;;;;;;5068847;28;20244;-84
2023/03/17 05:14:08;;;;;;;19.60;6.50;;;4.40;1.00;;;;;;5064904;28;20229;-83
2023/03/17 05:16:36;;;;;;;10.55;5.03;;;4.40;1.00;;;;;;5063023;28;20302;-82
2023/03/17 05:19:03;;;;;;;10.98;5.57;;;4.40;1.00;;;;;;5055789;28;20332;-83
2023/03/17 05:21:30;;;;;;;13.20;8.00;;;4.40;1.00;;;;;;5079173;28;20271;-83
2023/03/17 05:23:58;;;;;;;18.33;5.45;;;4.40;1.00;;;;;;5067387;28;20247;-83
2023/03/17 05:26:25;;;;;;;10.48;5.22;;;4.40;1.00;;;;;;5067442;28;20233;-83
2023/03/17 05:28:53;;;;;;;11.82;5.10;;;4.50;1.00;;;;;;5066646;28;20715;-83
2023/03/17 05:31:20;;;;;;;9.57;4.72;;;4.50;1.00;;;;;;5062191;28;20235;-82
2023/03/17 05:33:50;;;;;;;11.88;5.72;;;4.50;1.00;;;;;;5068870;28;20261;-81
2023/03/17 05:36:20;;;;;;;9.70;5.10;;;4.60;1.00;;;;;;5066025;28;21034;-83
2023/03/17 05:38:46;;;;;;;9.90;5.57;;;4.60;1.00;;;;;;5063823;28;20234;-83
2023/03/17 05:41:14;;;;;;;9.52;5.03;;;4.70;1.00;;;;;;5063602;27;20239;-81
2023/03/17 05:43:44;;;;;;;9.73;5.15;;;4.70;1.00;;;;;;5060729;28;20264;-82
2023/03/17 05:46:11;;;;;;;8.77;4.65;;;4.70;1.00;;;;;;5070900;28;20642;-81
2023/03/17 05:48:38;;;;;;;85.25;24.00;;;4.70;1.00;;;;;;5062253;28;20275;-84
2023/03/17 05:51:07;;;;;;;9.98;6.15;;;4.80;1.00;;;;;;5069663;28;20291;-85
2023/03/17 05:53:34;;;;;;;16.58;6.50;;;4.90;1.00;;;;;;5069938;28;20292;-84
2023/03/17 05:56:01;;;;;;;12.35;5.40;;;4.90;1.00;;;;;;5063515;28;20343;-86
2023/03/17 05:58:29;;;;;;;8.27;5.20;;;4.90;1.00;;;;;;5070398;28;20342;-85
2023/03/17 06:00:56;;;;;;;10.00;5.10;;;4.80;1.00;;;;;;5068880;28;20362;-85
2023/03/17 06:03:23;;;;;;;11.52;5.28;;;4.80;1.00;;;;;;5064967;28;20245;-85
2023/03/17 06:05:50;;;;;;;10.60;5.40;;;4.80;1.00;;;;;;5074558;28;20295;-86
2023/03/17 06:08:21;;;;;;;9.55;4.78;;;4.90;1.00;;;;;;5065818;28;20240;-84
2023/03/17 06:10:48;;;;;;;10.50;4.70;;;4.80;1.00;;;;;;5063437;28;20245;-83
2023/03/17 06:13:15;;;;;;;10.38;5.38;;;4.90;1.00;;;;;;5065924;28;20252;-83
2023/03/17 06:15:42;;;;;;;9.45;5.53;;;5.00;1.00;;;;;;5064119;28;20246;-83
2023/03/17 06:18:10;;;;;;;8.77;4.60;;;5.00;1.00;;;;;;5068415;28;20279;-83
2023/03/17 06:20:36;;;;;;;9.82;5.15;;;4.90;1.00;;;;;;5064565;28;20268;-84
2023/03/17 06:23:05;;;;;;;11.60;5.40;;;5.00;1.00;;;;;;5071422;28;20242;-84
2023/03/17 06:25:35;;;;;;;10.00;4.78;;;5.00;1.00;;;;;;5064795;28;20268;-84
2023/03/17 06:28:02;;;;;;;9.25;5.45;;;5.10;1.00;;;;;;5069089;28;20679;-83
2023/03/17 06:30:31;;;;;;;8.65;4.78;;;5.10;1.00;;;;;;5066138;28;20288;-83
2023/03/17 06:32:59;;;;;;;10.38;5.28;;;5.00;1.00;;;;;;5060733;28;20233;-84
2023/03/17 06:35:27;;;;;;;11.52;5.63;;;5.20;1.00;;;;;;5081483;27;20525;-82
2023/03/17 06:37:54;;;;;;;10.75;5.43;;;5.10;1.00;;;;;;5065677;27;20242;-85
2023/03/17 06:40:21;;;;;;;10.63;5.95;;;5.20;1.00;;;;;;5048942;28;20296;-83
2023/03/17 06:42:49;;;;;;;10.18;5.65;;;5.20;1.00;;;;;;5051991;28;20242;-84
2023/03/17 06:45:17;;;;;;;10.32;5.28;;;5.30;1.00;;;;;;5070055;28;20249;-83
2023/03/17 06:47:44;;;;;;;11.27;5.78;;;5.40;1.00;;;;;;5070479;28;20250;-88
2023/03/17 06:50:12;;;;;;;12.32;5.32;;;5.30;1.00;;;;;;5071476;28;20252;-85
2023/03/17 06:52:41;;;;;;;11.50;5.70;;;5.30;1.00;;;;;;5072842;28;20573;-84
2023/03/17 06:55:09;;;;;;;9.40;5.10;;;5.40;1.00;;;;;;5059522;27;20271;-83
2023/03/17 06:57:36;;;;;;;9.77;5.82;;;5.40;1.00;;;;;;5046388;28;21192;-83
2023/03/17 07:00:06;;;;;;;9.68;4.78;;;5.40;1.00;;;;;;5050050;28;20249;-83
2023/03/17 07:02:33;;;;;;;9.32;4.65;;;5.50;1.00;;;;;;5052095;28;20997;-82
2023/03/17 07:05:01;;;;;;;13.45;5.47;;;5.40;1.00;;;;;;5046730;28;20306;-83
2023/03/17 07:07:28;;;;;;;9.23;5.40;;;5.40;1.00;;;;;;5046768;28;20241;-83
2023/03/17 07:09:55;;;;;;;10.82;5.38;;;5.50;1.00;;;;;;5054034;28;20341;-84
2023/03/17 07:12:22;;;;;;;14.20;6.47;;;5.60;1.00;;;;;;5063566;28;20367;-86
2023/03/17 07:14:49;;;;;;;8.77;5.53;;;5.70;1.00;;;;;;5059160;28;20332;-82
2023/03/17 07:17:18;;;;;;;9.52;4.60;;;5.70;1.00;;;;;;5052324;28;20287;-83
2023/03/17 07:19:46;;;;;;;10.63;5.35;;;5.60;1.00;;;;;;5062269;28;20245;-86
2023/03/17 07:22:13;;;;;;;8.68;5.38;;;5.60;1.00;;;;;;5070271;28;20244;-83
2023/03/17 07:24:41;;;;;;;14.27;5.60;;;5.60;1.00;;;;;;5068785;28;20244;-83
2023/03/17 07:27:09;;;;;;;10.90;5.20;;;5.60;1.00;;;;;;5071895;28;20414;-86
2023/03/17 07:29:36;;;;;;;9.50;4.90;;;5.60;1.00;;;;;;5067245;28;20318;-86
2023/03/17 07:32:05;;;;;;;8.40;5.10;;;5.70;1.00;;;;;;5068423;28;20222;-87
2023/03/17 07:34:34;;;;;;;10.75;5.28;;;5.80;1.00;;;;;;5077650;28;20244;-88
2023/03/17 07:37:01;;;;;;;10.55;5.70;;;6.00;1.00;;;;;;5083608;28;20237;-86
2023/03/17 07:39:28;;;;;;;9.35;5.45;;;6.10;1.00;;;;;;5080459;28;20229;-86
2023/03/17 07:41:55;;;;;;;10.02;5.70;;;6.40;1.00;;;;;;5068816;28;20325;-86
2023/03/17 07:44:24;;;;;;;13.02;5.53;;;6.60;1.00;;;;;;5081669;28;20624;-86
2023/03/17 07:46:51;;;;;;;11.13;5.72;;;6.60;1.00;;;;;;5080237;28;21203;-85
2023/03/17 07:49:19;;;;;;;14.30;5.63;;;6.80;1.00;;;;;;5079983;28;20247;-84
2023/03/17 07:51:48;;;;;;;13.52;5.65;;;6.90;1.00;;;;;;5074606;28;20241;-88
2023/03/17 07:54:15;;;;;;;9.65;5.57;;;7.00;1.00;;;;;;5103701;27;20239;-88
2023/03/17 07:56:43;;;;;;;10.63;4.85;;;6.90;1.00;;;;;;5082777;28;21215;-87
2023/03/17 07:59:10;;;;;;;12.77;4.63;;;6.90;1.00;;;;;;5078140;28;20290;-86
2023/03/17 08:01:38;;;;;;;10.25;5.38;;;7.00;1.00;;;;;;5076800;28;20588;-85
2023/03/17 08:04:07;;;;;;;16.38;5.90;;;7.00;1.00;;;;;;5076642;28;20341;-85
2023/03/17 08:06:39;;;;;;;9.95;4.97;;;7.20;1.00;;;;;;5070913;28;20242;-86
2023/03/17 08:09:13;;;;;;;12.27;5.60;;;7.30;1.00;;;;;;5078114;28;20264;-86
2023/03/17 08:11:40;;;;;;;13.80;5.57;;;7.50;1.00;;;;;;5076673;28;21161;-88
2023/03/17 08:14:08;;;;;;;11.17;5.90;;;7.70;1.00;;;;;;5081799;28;20459;-88
2023/03/17 08:16:35;;;;;;;10.00;5.43;;;7.90;1.00;;;;;;5077912;28;20717;-87
2023/03/17 08:19:06;;;;;;;8.40;4.63;;;8.30;1.00;;;;;;5082742;28;20438;-87
2023/03/17 08:21:33;;;;;;;9.17;5.43;;;8.70;1.00;;;;;;5081252;28;20416;-86
2023/03/17 08:24:03;;;;;;;10.10;5.10;;;9.00;1.00;;;;;;5069196;28;20522;-86
2023/03/17 08:26:34;;;;;;;7.60;4.77;;;8.90;1.00;;;;;;5075706;28;20442;-89
2023/03/17 08:29:01;;;;;;;7.67;5.10;;;8.90;1.00;;;;;;5078298;28;20997;-86
2023/03/17 08:31:28;;;;;;;7.63;4.60;;;9.00;1.00;;;;;;5076432;28;20447;-87
2023/03/17 08:33:56;;;;;;;10.17;5.27;;;9.10;1.00;;;;;;5076313;28;20479;-86
2023/03/17 08:36:24;;;;;;;8.43;5.47;;;9.00;1.00;;;;;;5072912;28;20454;-88
2023/03/17 08:38:52;;;;;;;10.30;5.10;;;9.20;1.00;;;;;;5073764;28;20507;-88
2023/03/17 08:41:24;;;;;;;9.17;5.00;;;9.50;1.00;;;;;;5053968;28;20530;-86
2023/03/17 08:43:52;;;;;;;9.70;5.60;;;9.70;1.00;;;;;;5078209;28;21328;-86
2023/03/17 08:46:23;;;;;;;8.80;5.20;;;9.80;1.00;;;;;;5075214;28;20421;-85
2023/03/17 08:48:52;;;;;;;9.10;5.10;;;9.80;1.00;;;;;;5073770;28;20436;-86
2023/03/17 08:51:20;;;;;;;7.90;4.30;;;9.80;1.00;;;;;;5066671;28;20451;-83
2023/03/17 08:53:47;;;;;;;9.80;5.70;;;9.60;1.00;;;;;;5061802;28;20620;-80
2023/03/17 08:56:15;;;;;;;8.70;4.93;;;9.60;1.00;;;;;;5066803;28;20259;-81
2023/03/17 08:58:43;;;;;;;8.50;5.20;;;9.70;1.00;;;;;;5064408;28;20466;-81
2023/03/17 09:01:12;;;;;;;9.23;4.87;;;9.80;1.00;;;;;;5065908;28;20517;-82
2023/03/17 09:03:40;;;;;;;9.90;4.87;;;9.70;1.00;;;;;;5066833;28;20475;-83
2023/03/17 09:06:10;;;;;;;10.87;4.80;;;9.80;1.00;;;;;;5073207;28;20460;-85
2023/03/17 09:08:38;;;;;;;7.70;4.60;;;9.80;1.00;;;;;;5077215;28;20567;-85
2023/03/17 09:11:09;;;;;;;9.10;5.53;;;9.80;1.00;;;;;;5077130;28;20938;-86
2023/03/17 09:13:37;;;;;;;8.07;4.57;;;9.90;1.00;;;;;;5076635;28;20566;-84
2023/03/17 09:16:07;;;;;;;8.47;4.43;;;9.80;1.00;;;;;;5072793;28;20483;-85
2023/03/17 09:18:38;;;;;;;9.20;5.27;;;9.70;1.00;;;;;;5079270;28;22123;-86
2023/03/17 09:21:06;;;;;;;8.97;5.13;;;9.90;1.00;;;;;;5078149;28;20447;-86
2023/03/17 09:23:33;;;;;;;8.00;4.07;;;10.10;1.00;;;;;;5076241;28;20466;-86
2023/03/17 09:26:02;;;;;;;8.07;4.60;;;10.10;1.00;;;;;;5078239;28;20501;-85
2023/03/17 09:28:29;;;;;;;9.83;5.20;;;10.20;1.00;;;;;;5072614;28;20634;-85
2023/03/17 09:30:58;;;;;;;8.97;4.77;;;10.40;1.00;;;;;;5106395;27;21056;-87
2023/03/17 09:33:25;;;;;;;9.80;4.70;;;10.70;1.00;;;;;;5075774;28;20491;-84
2023/03/17 09:35:55;;;;;;;9.33;4.90;;;10.90;1.00;;;;;;5078905;28;20420;-86
2023/03/17 09:38:24;;;;;;;9.53;4.77;;;11.20;1.00;;;;;;5073460;28;20456;-86
2023/03/17 09:40:57;;;;;;;9.33;4.60;;;11.30;1.00;;;;;;5068500;28;20459;-85
2023/03/17 09:43:33;;;;;;;13.20;5.07;;;11.70;1.00;;;;;;5073105;27;20483;-85
2023/03/17 09:46:08;;;;;;;12.30;5.50;;;11.90;1.00;;;;;;5078683;28;20518;-85
2023/03/17 09:48:50;;;;;;;9.40;5.00;;;12.20;1.00;;;;;;5088375;27;20463;-86
2023/03/17 09:51:19;;;;;;;11.20;5.93;;;12.50;1.00;;;;;;5076234;27;20484;-85
2023/03/17 09:53:52;;;;;;;9.20;5.07;;;13.00;1.00;;;;;;5073215;28;20473;-85
2023/03/17 09:56:20;;;;;;;7.50;4.50;;;13.80;1.00;;;;;;5077115;28;20476;-85
2023/03/17 09:58:51;;;;;;;9.63;5.13;;;14.20;1.00;;;;;;5074788;28;20496;-86
2023/03/17 10:01:19;;;;;;;8.03;5.00;;;15.10;1.00;;;;;;5076666;28;20482;-87
2023/03/17 10:03:49;;;;;;;7.70;4.33;;;15.70;1.00;;;;;;5075060;28;20523;-86
2023/03/17 10:06:34;;;;;;;8.93;4.87;;;16.70;1.00;;;;;;5067131;28;20463;-87
2023/03/17 10:09:17;;;;;;;9.73;4.40;;;17.60;1.00;;;;;;5066436;28;20966;-87
2023/03/17 10:11:47;;;;;;;8.70;4.30;;;18.30;1.00;;;;;;5071564;28;20438;-87
2023/03/17 10:14:50;;;;;;;9.27;4.53;;;18.20;1.00;;;;;;5073755;28;20513;-86
2023/03/17 10:17:19;;;;;;;7.47;4.80;;;18.20;1.00;;;;;;5070435;28;20434;-87
2023/03/17 10:19:58;;;;;;;9.23;5.47;;;17.60;1.00;;;;;;5068486;28;20555;-85
2023/03/17 10:22:32;;;;;;;7.27;4.50;;;18.20;1.00;;;;;;5065171;27;20512;-87
2023/03/17 10:25:04;;;;;;;6.30;4.00;;;19.40;1.00;;;;;;5052023;28;20502;-87
2023/03/17 10:27:37;;;;;;;7.70;4.80;;;20.20;1.00;;;;;;5053233;28;20472;-85
2023/03/17 10:30:06;;;;;;;8.13;4.20;;;20.10;1.00;;;;;;5048927;28;20448;-88
2023/03/17 10:32:39;;;;;;;8.37;4.70;;;19.40;1.00;;;;;;5053840;28;20481;-86
2023/03/17 10:35:07;;;;;;;10.03;4.40;;;19.10;1.00;;;;;;5065165;28;20499;-88
2023/03/17 10:37:38;;;;;;;9.37;4.10;;;19.20;1.00;;;;;;5070050;28;20462;-88
2023/03/17 10:40:09;;;;;;;7.60;4.30;;;19.20;1.00;;;;;;5066367;28;20463;-88
2023/03/17 10:42:46;;;;;;;7.43;3.87;;;18.60;1.00;;;;;;5075171;28;20442;-86
2023/03/17 10:45:18;;;;;;;8.60;4.40;;;18.50;1.00;;;;;;5081869;27;20842;-85
2023/03/17 10:47:48;;;;;;;7.80;4.50;;;18.70;1.00;;;;;;5077580;27;20557;-86
2023/03/17 10:50:21;;;;;;;9.90;5.43;;;18.20;1.00;;;;;;5064969;28;20433;-88
2023/03/17 10:52:53;;;;;;;6.23;4.00;;;18.60;1.00;;;;;;5069720;28;20473;-87
2023/03/17 10:55:26;;;;;;;6.90;4.00;;;19.10;1.00;;;;;;5067713;28;20849;-86
2023/03/17 10:58:01;;;;;;;6.50;3.73;;;18.40;1.00;;;;;;5068392;28;20830;-88
2023/03/17 11:00:32;;;;;;;7.97;4.73;;;18.50;1.00;;;;;;5068373;28;20492;-88
2023/03/17 11:03:03;;;;;;;10.80;3.93;;;18.20;1.00;;;;;;5066726;27;20543;-89
2023/03/17 11:05:30;;;;;;;7.60;4.03;;;18.70;1.00;;;;;;5069781;28;20432;-87
2023/03/17 11:08:07;;;;;;;7.60;4.10;;;19.00;1.00;;;;;;5070261;28;20436;-87
2023/03/17 11:10:38;;;;;;;7.63;3.90;;;18.20;1.00;;;;;;5049445;28;20467;-88
2023/03/17 11:13:05;;;;;;;9.73;4.20;;;18.10;1.00;;;;;;5052675;28;20444;-88
2023/03/17 11:15:34;;;;;;;6.53;4.10;;;18.30;1.00;;;;;;5054177;28;20473;-87
2023/03/17 11:18:04;;;;;;;6.93;3.90;;;18.50;1.00;;;;;;5064836;27;20448;-87
2023/03/17 11:20:52;;;;;;;7.67;4.00;;;18.30;1.00;;;;;;5063183;27;20588;-87
2023/03/17 11:23:42;;;;;;;7.53;4.30;;;18.40;1.00;;;;;;5080822;27;20420;-83
2023/03/17 11:26:23;;;;;;;6.57;4.10;;;19.30;1.00;;;;;;5058808;27;20239;-83
2023/03/17 11:28:57;;;;;;;6.20;3.70;;;19.60;1.00;;;;;;5063860;27;20455;-83
2023/03/17 11:31:30;;;;;;;13.33;4.77;;;19.40;1.00;;;;;;5061852;27;20466;-83
2023/03/17 11:34:04;;;;;;;9.57;4.80;;;19.90;1.00;;;;;;5061493;27;20484;-82
2023/03/17 11:36:46;;;;;;;7.03;3.70;;;20.60;1.00;;;;;;5044643;28;20955;-82
2023/03/17 11:39:20;;;;;;;7.00;4.30;;;21.30;1.00;;;;;;5062474;28;20543;-82
2023/03/17 11:42:11;;;;;;;5.30;4.10;;;22.10;1.00;;;;;;5062335;28;20470;-84
2023/03/17 11:45:08;;;;;;;8.37;4.23;;;21.40;1.00;;;;;;5058338;28;20465;-84
2023/03/17 11:47:49;;;;;;;6.03;4.20;;;21.90;1.00;;;;;;5057158;28;20559;-84
2023/03/17 11:50:28;;;;;;;8.63;3.97;;;22.50;1.00;;;;;;5065637;28;20513;-82
2023/03/17 11:53:08;;;;;;;6.20;3.97;;;22.00;1.00;;;;;;5066549;28;20531;-83
2023/03/17 11:55:43;;;;;;;8.00;4.13;;;22.30;1.00;;;;;;5055674;28;20477;-83
2023/03/17 11:58:17;;;;;;;8.50;3.90;;;22.30;1.00;;;;;;5057386;28;20468;-84
2023/03/17 12:00:49;;;;;;;6.10;3.70;;;21.40;1.00;;;;;;5059699;28;20494;-83
2023/03/17 12:03:22;;;;;;;5.80;3.50;;;21.90;1.00;;;;;;5056877;28;21383;-84
2023/03/17 12:05:54;;;;;;;6.57;3.67;;;22.00;1.00;;;;;;5055714;28;20464;-84
2023/03/17 12:08:29;;;;;;;7.10;4.00;;;22.50;1.00;;;;;;5060206;28;20442;-84
2023/03/17 12:11:02;;;;;;;6.10;3.30;;;22.40;1.00;;;;;;5061713;28;20461;-84
2023/03/17 12:13:33;;;;;;;5.30;3.30;;;21.90;1.00;;;;;;5064424;28;20454;-83
2023/03/17 12:16:05;;;;;;;6.13;3.43;;;21.50;1.00;;;;;;5085757;27;20497;-84
2023/03/17 12:18:36;;;;;;;7.07;4.20;;;21.10;1.00;;;;;;5065129;28;20471;-85
2023/03/17 12:21:13;;;;;;;8.10;3.10;;;20.10;1.00;;;;;;5070601;28;20539;-83
2023/03/17 12:23:47;;;;;;;6.27;3.60;;;19.40;1.00;;;;;;5061766;28;20449;-83
2023/03/17 12:26:19;;;;;;;7.70;4.47;;;19.20;1.00;;;;;;5064394;28;20491;-84
2023/03/17 12:28:51;;;;;;;9.50;4.30;;;19.80;1.00;;;;;;5066179;28;20515;-82
2023/03/17 12:31:22;;;;;;;7.00;3.70;;;20.30;1.00;;;;;;5066115;28;21124;-83
2023/03/17 12:33:57;;;;;;;8.33;6.23;;;20.80;1.00;;;;;;5072085;28;20541;-84
2023/03/17 12:36:25;;;;;;;6.30;3.40;;;20.60;1.00;;;;;;5067092;27;21114;-86
2023/03/17 12:38:56;;;;;;;6.97;3.43;;;19.50;1.00;;;;;;5061318;28;20824;-84
2023/03/17 12:41:55;;;;;;;5.83;3.50;;;19.50;1.00;;;;;;5067538;27;20424;-86
2023/03/17 12:44:36;;;;;;;5.40;3.60;;;20.00;1.00;;;;;;5065886;27;20704;-84
2023/03/17 12:47:28;;;;;;;5.90;3.40;;;20.10;1.00;;;;;;5060581;27;20987;-85
2023/03/17 12:50:14;;;;;;;7.27;3.93;;;20.00;1.00;;;;;;5060525;28;20490;-87
2023/03/17 12:53:13;;;;;;;7.70;3.70;;;20.00;1.00;;;;;;5073328;27;20458;-87
2023/03/17 12:55:41;;;;;;;7.73;3.13;;;19.90;1.00;;;;;;5050904;27;20865;-83
2023/03/17 12:58:26;;;;;;;5.70;3.30;;;19.20;1.00;;;;;;5068782;27;20459;-84
2023/03/17 13:01:06;;;;;;;6.33;3.23;;;19.20;1.00;;;;;;5069015;27;20556;-86
2023/03/17 13:03:35;;;;;;;11.43;3.60;;;19.10;1.00;;;;;;5033735;28;20517;-84
2023/03/17 13:06:06;;;;;;;6.60;3.13;;;19.10;1.00;;;;;;5041448;28;20478;-83
2023/03/17 13:08:36;;;;;;;6.03;3.70;;;18.50;1.00;;;;;;5044742;28;20550;-84
2023/03/17 13:11:18;;;;;;;5.67;3.27;;;18.10;1.00;;;;;;5037304;28;20485;-86
2023/03/17 13:13:58;;;;;;;6.63;3.40;;;18.00;1.00;;;;;;5090156;27;20837;-85
2023/03/17 13:16:33;;;;;;;5.87;2.90;;;18.40;1.00;;;;;;5044893;28;20466;-84